createdAt,value
2022-08-09T00:00:12.258Z,9.18
2022-08-09T00:02:49.864Z,5.67
2022-08-09T00:06:18.425Z,3.70
2022-08-09T00:07:59.949Z,4.05
2022-08-09T00:10:32.280Z,3.90
2022-08-09T00:13:16.879Z,4.00
2022-08-09T00:15:59.847Z,5.53
2022-08-09T00:18:17.606Z,3.75
2022-08-09T00:20:51.498Z,4.43
2022-08-09T00:23:56.553Z,3.92
2022-08-09T00:25:58.309Z,4.00
2022-08-09T00:28:33.542Z,3.95
2022-08-09T00:31:09.106Z,3.37
2022-08-09T00:33:51.194Z,4.25
2022-08-09T00:36:19.465Z,5.67
2022-08-09T00:38:52.264Z,3.52
2022-08-09T00:44:10.493Z,3.40
2022-08-09T00:44:19.183Z,3.55
2022-08-09T00:46:57.232Z,3.47
2022-08-09T00:49:09.084Z,3.70
2022-08-09T00:51:56.083Z,3.10
2022-08-09T00:54:17.782Z,3.30
2022-08-09T00:56:50.290Z,3.83
2022-08-09T00:59:40.521Z,3.33
2022-08-09T01:01:57.920Z,3.20
2022-08-09T01:04:54.411Z,3.33
2022-08-09T01:08:01.665Z,8.13
2022-08-09T01:11:09.232Z,9.38
2022-08-09T01:14:03.221Z,4.05
2022-08-09T01:16:47.452Z,3.65
2022-08-09T01:19:40.293Z,2.75
2022-08-09T01:25:12.366Z,2.92
2022-08-09T01:27:46.109Z,2.90
2022-08-09T01:32:53.663Z,2.75
2022-08-09T01:35:38.641Z,2.45
2022-08-09T01:38:20.693Z,2.67
2022-08-09T01:41:18.734Z,2.67
2022-08-09T01:43:57.548Z,2.47
2022-08-09T01:46:36.409Z,2.60
2022-08-09T01:49:14.651Z,2.67
2022-08-09T01:51:57.868Z,2.90
2022-08-09T01:54:34.035Z,2.50
2022-08-09T01:57:20.523Z,2.87
2022-08-09T02:00:00.189Z,2.65
2022-08-09T02:02:32.720Z,3.25
2022-08-09T02:05:15.185Z,3.00
2022-08-09T02:08:35.571Z,3.15
2022-08-09T02:10:34.095Z,2.87
2022-08-09T02:13:11.884Z,3.27
2022-08-09T02:15:50.378Z,3.00
2022-08-09T02:18:27.962Z,2.80
2022-08-09T02:21:03.301Z,2.83
2022-08-09T02:23:43.441Z,2.83
2022-08-09T02:26:25.079Z,2.80
2022-08-09T02:28:55.653Z,2.65
2022-08-09T02:31:36.324Z,2.65
2022-08-09T02:34:40.098Z,3.20
2022-08-09T02:36:55.300Z,2.83
2022-08-09T02:39:42.596Z,2.62
2022-08-09T02:42:35.302Z,2.80
2022-08-09T02:45:30.540Z,2.37
2022-08-09T02:48:12.275Z,2.60
2022-08-09T02:50:56.137Z,2.92
2022-08-09T02:53:29.040Z,2.67
2022-08-09T02:56:02.354Z,2.92
2022-08-09T02:58:38.082Z,2.33
2022-08-09T03:01:10.797Z,2.58
2022-08-09T03:04:13.738Z,2.65
2022-08-09T03:06:17.761Z,2.80
2022-08-09T03:08:51.551Z,2.22
2022-08-09T03:12:04.914Z,2.22
2022-08-09T03:14:01.770Z,2.35
2022-08-09T03:16:37.367Z,2.58
2022-08-09T03:19:16.783Z,2.60
2022-08-09T03:21:43.839Z,2.15
2022-08-09T03:24:34.324Z,1.98
2022-08-09T03:26:55.666Z,2.58
2022-08-09T03:29:28.185Z,2.60
2022-08-09T03:32:02.379Z,2.58
2022-08-09T03:34:35.415Z,3.30
2022-08-09T03:37:29.227Z,2.47
2022-08-09T03:39:48.569Z,1.90
2022-08-09T03:44:51.425Z,3.02
2022-08-09T03:47:24.033Z,3.10
2022-08-09T03:49:58.707Z,2.80
2022-08-09T03:52:43.770Z,2.60
2022-08-09T03:55:18.926Z,2.40
2022-08-09T03:58:03.367Z,2.27
2022-08-09T04:00:30.237Z,2.60
2022-08-09T04:03:03.980Z,2.10
2022-08-09T04:05:40.420Z,2.10
2022-08-09T04:08:12.825Z,2.33
2022-08-09T04:10:49.726Z,2.55
2022-08-09T04:13:44.956Z,2.70
2022-08-09T04:16:20.567Z,2.40
2022-08-09T04:18:30.476Z,2.20
2022-08-09T04:21:04.930Z,2.62
2022-08-09T04:23:37.920Z,2.20
2022-08-09T04:26:12.401Z,2.20
2022-08-09T04:28:46.853Z,2.30
2022-08-09T04:31:19.054Z,2.50
2022-08-09T04:33:57.053Z,2.30
2022-08-09T04:36:29.711Z,2.15
2022-08-09T04:39:08.162Z,2.98
2022-08-09T04:41:43.790Z,2.45
2022-08-09T04:44:14.994Z,2.50
2022-08-09T04:46:59.841Z,1.90
2022-08-09T04:49:40.490Z,1.95
2022-08-09T04:51:58.830Z,2.17
2022-08-09T04:54:31.274Z,2.27
2022-08-09T04:57:04.193Z,1.75
2022-08-09T04:59:36.782Z,2.40
2022-08-09T05:02:09.614Z,1.70
2022-08-09T05:04:42.762Z,1.90
2022-08-09T05:07:19.292Z,1.87
2022-08-09T05:09:50.553Z,4.03
2022-08-09T05:12:23.465Z,6.22
2022-08-09T05:14:56.008Z,4.87
2022-08-09T05:18:42.844Z,3.52
2022-08-09T05:20:02.616Z,2.52
2022-08-09T05:23:50.964Z,2.40
2022-08-09T05:25:10.150Z,2.25
2022-08-09T05:27:46.477Z,1.87
2022-08-09T05:30:19.414Z,2.00
2022-08-09T05:32:53.342Z,2.00
2022-08-09T05:35:28.215Z,1.95
2022-08-09T05:38:00.947Z,2.02
2022-08-09T05:40:35.458Z,2.37
2022-08-09T05:43:08.947Z,1.77
2022-08-09T05:45:52.481Z,1.90
2022-08-09T05:48:16.729Z,5.42
2022-08-09T05:50:51.009Z,4.72
2022-08-09T05:53:33.228Z,3.70
2022-08-09T05:55:57.449Z,2.65
2022-08-09T05:58:29.963Z,1.80
2022-08-09T06:01:05.040Z,2.20
2022-08-09T06:03:43.949Z,2.10
2022-08-09T06:06:14.077Z,5.90
2022-08-09T06:08:52.794Z,6.12
2022-08-09T06:11:21.769Z,5.17
2022-08-09T06:13:57.367Z,1.90
2022-08-09T06:16:29.806Z,5.45
2022-08-09T06:19:02.456Z,4.87
2022-08-09T06:21:36.817Z,3.92
2022-08-09T06:24:10.959Z,2.15
2022-08-09T06:26:45.260Z,3.02
2022-08-09T06:29:19.132Z,3.02
2022-08-09T06:32:18.393Z,7.08
2022-08-09T06:34:29.922Z,5.78
2022-08-09T06:37:02.180Z,2.27
2022-08-09T06:39:48.208Z,3.42
2022-08-09T06:42:11.731Z,6.40
2022-08-09T06:44:45.968Z,10.25
2022-08-09T06:47:20.276Z,9.33
2022-08-09T06:50:14.519Z,8.98
2022-08-09T06:52:29.589Z,6.55
2022-08-09T06:55:06.675Z,6.20
2022-08-09T06:58:01.143Z,7.03
2022-08-09T07:00:52.718Z,10.38
2022-08-09T07:02:47.936Z,9.85
2022-08-09T07:05:20.648Z,10.37
2022-08-09T07:08:00.050Z,5.78
2022-08-09T07:10:32.289Z,4.70
2022-08-09T07:13:28.392Z,7.42
2022-08-09T07:16:38.628Z,5.28
2022-08-09T07:18:15.280Z,4.47
2022-08-09T07:20:48.815Z,2.58
2022-08-09T07:23:23.920Z,3.58
2022-08-09T07:26:02.192Z,2.52
2022-08-09T07:28:34.637Z,3.20
2022-08-09T07:31:07.586Z,4.80
2022-08-09T07:33:53.129Z,2.92
2022-08-09T07:36:18.701Z,2.15
2022-08-09T07:38:58.356Z,1.05
2022-08-09T07:41:26.035Z,2.70
2022-08-09T07:43:59.176Z,2.12
2022-08-09T07:46:34.240Z,1.87
2022-08-09T07:49:08.786Z,1.80
2022-08-09T07:52:05.173Z,1.40
2022-08-09T07:54:19.047Z,1.35
2022-08-09T07:56:51.900Z,2.25
2022-08-09T07:59:33.996Z,2.08
2022-08-09T08:01:59.143Z,1.80
2022-08-09T08:04:32.920Z,1.60
2022-08-09T08:07:15.416Z,1.52
2022-08-09T08:09:51.446Z,1.40
2022-08-09T08:12:27.721Z,1.60
2022-08-09T08:14:49.555Z,1.20
2022-08-09T08:17:35.179Z,1.47
2022-08-09T08:22:31.009Z,1.12
2022-08-09T08:25:09.385Z,1.40
2022-08-09T08:27:43.384Z,1.20
2022-08-09T08:30:17.467Z,1.65
2022-08-09T08:32:53.919Z,1.30
2022-08-09T08:35:37.080Z,6.55
2022-08-09T08:38:04.742Z,2.60
2022-08-09T08:40:35.276Z,1.95
2022-08-09T08:43:13.308Z,1.52
2022-08-09T08:46:04.071Z,1.00
2022-08-09T08:48:29.221Z,1.50
2022-08-09T08:51:01.795Z,1.80
2022-08-09T08:53:37.372Z,1.20
2022-08-09T08:56:16.904Z,1.22
2022-08-09T08:58:54.304Z,1.77
2022-08-09T09:01:45.057Z,1.05
2022-08-09T09:04:06.764Z,1.47
2022-08-09T09:06:43.315Z,1.57
2022-08-09T09:09:21.302Z,1.37
2022-08-09T09:11:53.680Z,1.32
2022-08-09T09:14:29.191Z,1.50
2022-08-09T09:17:03.584Z,0.90
2022-08-09T09:19:41.048Z,2.10
2022-08-09T09:22:17.081Z,3.22
2022-08-09T09:24:57.719Z,8.18
2022-08-09T09:28:05.246Z,2.00
2022-08-09T09:30:40.200Z,1.25
2022-08-09T09:32:48.265Z,2.77
2022-08-09T09:35:21.225Z,2.12
2022-08-09T09:37:55.515Z,2.12
2022-08-09T09:40:47.908Z,1.25
2022-08-09T09:43:23.637Z,1.77
2022-08-09T09:46:39.581Z,1.37
2022-08-09T09:48:34.620Z,1.02
2022-08-09T09:51:11.536Z,1.50
2022-08-09T09:53:57.461Z,1.80
2022-08-09T09:56:33.946Z,1.57
2022-08-09T09:59:07.543Z,1.30
2022-08-09T10:01:47.380Z,1.07
2022-08-09T10:04:23.143Z,1.65
2022-08-09T10:06:56.871Z,2.00
2022-08-09T10:09:54.680Z,1.50
2022-08-09T10:12:32.631Z,1.72
2022-08-09T10:15:17.490Z,1.40
2022-08-09T10:17:56.949Z,1.77
2022-08-09T10:20:35.499Z,1.77
2022-08-09T10:23:20.498Z,1.50
2022-08-09T10:26:07.298Z,1.40
2022-08-09T10:36:20.453Z,2.75
2022-08-09T10:38:57.038Z,4.33
2022-08-09T10:41:27.898Z,3.20
2022-08-09T10:44:01.696Z,2.85
2022-08-09T10:46:55.102Z,8.40
2022-08-09T10:49:49.826Z,3.25
2022-08-09T10:53:03.303Z,2.12
2022-08-09T10:55:55.234Z,1.72
2022-08-09T10:58:17.213Z,1.90
2022-08-09T11:00:56.859Z,2.12
2022-08-09T11:03:49.620Z,1.77
2022-08-09T11:06:24.755Z,1.70
2022-08-09T11:08:59.746Z,1.75
2022-08-09T11:12:01.934Z,3.65
2022-08-09T11:14:58.481Z,2.75
2022-08-09T11:17:42.211Z,1.75
2022-08-09T11:20:20.299Z,1.72
2022-08-09T11:22:58.331Z,1.52
2022-08-09T11:25:47.554Z,7.22
2022-08-09T11:28:38.736Z,10.10
2022-08-09T11:31:52.643Z,2.55
2022-08-09T11:34:43.029Z,1.60
2022-08-09T11:37:20.508Z,1.57
2022-08-09T11:40:06.301Z,2.20
2022-08-09T11:42:50.199Z,1.52
2022-08-09T11:45:42.541Z,1.60
2022-08-09T11:48:25.996Z,1.60
2022-08-09T11:52:48.931Z,1.45
2022-08-09T11:53:59.653Z,1.37
2022-08-09T11:56:42.619Z,1.15
2022-08-09T11:59:05.714Z,1.37
2022-08-09T12:02:34.474Z,1.12
2022-08-09T12:04:20.782Z,1.27
2022-08-09T12:06:59.117Z,1.50
2022-08-09T12:09:33.574Z,1.80
2022-08-09T12:12:12.321Z,0.98
2022-08-09T12:15:07.255Z,1.15
2022-08-09T12:17:27.948Z,1.60
2022-08-09T12:19:59.640Z,1.92
2022-08-09T12:22:29.168Z,2.05
2022-08-09T12:25:18.045Z,1.30
2022-08-09T12:29:10.493Z,2.33
2022-08-09T12:30:53.724Z,1.15
2022-08-09T12:33:51.495Z,5.42
2022-08-09T12:36:27.478Z,7.95
2022-08-09T12:38:41.541Z,3.98
2022-08-09T12:44:06.244Z,2.00
2022-08-09T12:46:25.565Z,1.42
2022-08-09T12:48:58.165Z,2.33
2022-08-09T12:51:30.750Z,1.30
2022-08-09T12:54:06.112Z,2.10
2022-08-09T12:56:54.062Z,1.50
2022-08-09T12:59:57.675Z,1.30
2022-08-09T13:02:09.651Z,1.00
2022-08-09T13:04:43.185Z,1.27
2022-08-09T13:07:19.923Z,1.52
2022-08-09T13:10:00.964Z,1.35
2022-08-09T13:12:39.807Z,1.92
2022-08-09T13:15:09.880Z,1.60
2022-08-09T13:18:03.203Z,0.88
2022-08-09T13:20:23.567Z,1.50
2022-08-09T13:23:05.725Z,1.10
2022-08-09T13:25:57.655Z,1.00
2022-08-09T13:28:34.330Z,1.40
2022-08-09T13:32:14.869Z,1.82
2022-08-09T13:33:53.710Z,1.20
2022-08-09T13:39:01.194Z,1.52
2022-08-09T13:44:07.211Z,6.45
2022-08-09T13:47:14.464Z,2.10
2022-08-09T13:49:18.321Z,2.75
2022-08-09T13:52:00.674Z,2.50
2022-08-09T13:54:26.818Z,2.10
2022-08-09T13:57:00.900Z,1.75
2022-08-09T13:59:41.614Z,2.05
2022-08-09T14:02:11.556Z,2.10
2022-08-09T14:04:59.214Z,1.52
2022-08-09T14:07:20.025Z,1.55
2022-08-09T14:09:54.368Z,1.30
2022-08-09T14:12:38.547Z,1.55
2022-08-09T14:16:06.889Z,1.60
2022-08-09T14:18:19.097Z,2.08
2022-08-09T14:20:23.787Z,1.92
2022-08-09T14:22:56.050Z,1.55
2022-08-09T14:25:31.386Z,3.05
2022-08-09T14:28:03.970Z,1.57
2022-08-09T14:30:41.411Z,1.52
2022-08-09T14:33:20.905Z,1.70
2022-08-09T14:35:52.982Z,1.75
2022-08-09T14:38:25.795Z,2.35
2022-08-09T14:41:04.251Z,1.87
2022-08-09T14:43:47.222Z,1.55
2022-08-09T14:48:43.866Z,2.27
2022-08-09T14:51:19.452Z,12.53
2022-08-09T14:53:52.406Z,7.80
2022-08-09T14:56:26.821Z,5.80
2022-08-09T14:59:00.679Z,2.52
2022-08-09T15:01:33.383Z,2.33
2022-08-09T15:04:06.106Z,2.45
2022-08-09T15:06:41.339Z,2.00
2022-08-09T15:10:03.401Z,2.17
2022-08-09T15:11:52.482Z,5.85
2022-08-09T15:14:26.283Z,3.75
2022-08-09T15:17:00.837Z,2.80
2022-08-09T15:19:36.280Z,2.08
2022-08-09T15:22:09.163Z,3.60
2022-08-09T15:24:42.048Z,2.42
2022-08-09T15:27:16.159Z,3.72
2022-08-09T15:30:58.118Z,1.70
2022-08-09T15:32:39.090Z,3.00
2022-08-09T15:35:01.520Z,1.80
2022-08-09T15:37:56.282Z,2.85
2022-08-09T15:40:20.047Z,2.42
2022-08-09T15:42:53.799Z,3.30
2022-08-09T15:45:29.805Z,1.52
2022-08-09T15:48:05.520Z,2.55
2022-08-09T15:53:32.631Z,1.90
2022-08-09T15:56:04.474Z,3.70
2022-08-09T16:00:53.698Z,2.33
2022-08-09T16:03:37.951Z,2.17
2022-08-09T16:06:03.623Z,2.10
2022-08-09T16:08:36.263Z,2.47
2022-08-09T16:11:10.805Z,1.77
2022-08-09T16:14:03.664Z,2.20
2022-08-09T16:16:19.169Z,2.10
2022-08-09T16:18:53.283Z,2.27
2022-08-09T16:21:26.489Z,6.87
2022-08-09T16:24:02.732Z,6.58
2022-08-09T16:26:36.678Z,6.12
2022-08-09T16:29:12.563Z,4.37
2022-08-09T16:32:17.754Z,4.55
2022-08-09T16:34:24.903Z,4.28
2022-08-09T16:36:58.645Z,4.42
2022-08-09T16:39:31.221Z,3.67
2022-08-09T16:42:07.350Z,2.60
2022-08-09T16:44:41.347Z,2.72
2022-08-09T16:48:37.915Z,2.12
2022-08-09T16:50:31.353Z,2.47
2022-08-09T16:54:56.554Z,2.52
2022-08-09T16:58:08.927Z,3.10
2022-08-09T17:02:52.401Z,2.92
2022-08-09T17:06:09.254Z,3.95
2022-08-09T17:10:35.442Z,2.77
2022-08-09T17:13:10.728Z,3.30
2022-08-09T17:15:59.926Z,1.50
2022-08-09T17:18:18.358Z,2.37
2022-08-09T17:20:53.178Z,1.90
2022-08-09T17:24:21.081Z,3.47
2022-08-09T17:26:02.072Z,2.10
2022-08-09T17:28:35.602Z,3.30
2022-08-09T17:31:08.948Z,1.72
2022-08-09T17:33:43.656Z,1.50
2022-08-09T17:36:16.507Z,2.45
2022-08-09T17:38:57.836Z,2.20
2022-08-09T17:44:38.098Z,2.52
2022-08-09T17:46:34.061Z,2.27
2022-08-09T17:49:06.463Z,2.62
2022-08-09T17:51:40.578Z,3.00
2022-08-09T17:54:15.312Z,3.15
2022-08-09T17:56:47.676Z,2.90
2022-08-09T17:59:20.118Z,2.40
2022-08-09T18:02:07.785Z,6.85
2022-08-09T18:04:29.087Z,17.70
2022-08-09T18:07:04.901Z,5.55
2022-08-09T18:09:41.620Z,10.85
2022-08-09T18:12:19.509Z,8.28
2022-08-09T18:14:54.720Z,4.75
2022-08-09T18:18:03.985Z,4.30
2022-08-09T18:21:01.752Z,13.75
2022-08-09T18:22:40.000Z,13.93
2022-08-09T18:25:14.199Z,4.70
2022-08-09T18:28:03.872Z,4.15
2022-08-09T18:30:35.051Z,7.60
2022-08-09T18:32:59.232Z,10.78
2022-08-09T18:35:58.858Z,7.30
2022-08-09T18:38:08.552Z,9.10
2022-08-09T18:40:44.246Z,4.08
2022-08-09T18:43:17.521Z,3.87
2022-08-09T18:46:46.176Z,6.85
2022-08-09T18:48:25.506Z,5.12
2022-08-09T18:51:00.079Z,5.30
2022-08-09T18:54:00.644Z,3.42
2022-08-09T18:56:09.751Z,3.67
2022-08-09T18:58:42.690Z,3.87
2022-08-09T19:01:19.093Z,3.50
2022-08-09T19:04:01.380Z,3.50
2022-08-09T19:06:27.973Z,3.50
2022-08-09T19:09:03.220Z,3.85
2022-08-09T19:16:49.903Z,3.47
2022-08-09T19:19:25.490Z,3.85
2022-08-09T19:22:06.752Z,9.85
2022-08-09T19:24:32.612Z,6.42
2022-08-09T19:27:01.779Z,4.22
2022-08-09T19:30:20.821Z,2.87
2022-08-09T19:32:12.249Z,3.72
2022-08-09T19:34:49.630Z,4.15
2022-08-09T19:37:21.262Z,4.33
2022-08-09T19:40:05.022Z,5.20
2022-08-09T19:42:30.913Z,4.12
2022-08-09T19:45:04.565Z,3.20
2022-08-09T19:47:38.267Z,2.85
2022-08-09T19:50:50.393Z,2.05
2022-08-09T19:52:51.583Z,3.10
2022-08-09T19:56:02.087Z,2.77
2022-08-09T19:58:18.151Z,2.02
2022-08-09T20:00:52.250Z,1.80
2022-08-09T20:04:17.841Z,1.67
2022-08-09T20:05:59.759Z,1.80
2022-08-09T20:08:35.561Z,1.52
2022-08-09T20:11:08.246Z,6.20
2022-08-09T20:13:41.140Z,9.60
2022-08-09T20:19:03.947Z,3.67
2022-08-09T20:21:40.789Z,5.70
2022-08-09T20:23:57.996Z,7.92
2022-08-09T20:26:32.526Z,3.92
2022-08-09T20:29:18.708Z,4.33
2022-08-09T20:32:28.531Z,3.00
2022-08-09T20:34:14.940Z,2.65
2022-08-09T20:36:51.248Z,3.20
2022-08-09T20:40:16.499Z,4.00
2022-08-09T20:41:59.838Z,3.08
2022-08-09T20:44:36.302Z,4.42
2022-08-09T20:47:07.565Z,3.25
2022-08-09T20:52:14.741Z,2.45
2022-08-09T20:54:52.861Z,2.67
2022-08-09T20:57:32.086Z,2.40
2022-08-09T21:02:35.570Z,5.97
2022-08-09T21:05:55.899Z,3.50
2022-08-09T21:07:44.413Z,3.45
2022-08-09T21:10:17.959Z,3.30
2022-08-09T21:15:34.277Z,5.70
2022-08-09T21:18:11.989Z,3.62
2022-08-09T21:20:35.779Z,4.53
2022-08-09T21:23:09.077Z,5.53
2022-08-09T21:25:56.049Z,3.15
2022-08-09T21:28:36.179Z,4.45
2022-08-09T21:31:16.501Z,5.25
2022-08-09T21:33:56.746Z,20.25
2022-08-09T21:36:28.941Z,7.10
2022-08-09T21:39:01.795Z,5.70
2022-08-09T21:42:04.477Z,8.90
2022-08-09T21:44:11.859Z,5.20
2022-08-09T21:46:45.958Z,4.28
2022-08-09T21:49:18.673Z,4.42
2022-08-09T21:51:51.211Z,4.28
2022-08-09T21:54:24.954Z,5.25
2022-08-09T21:56:59.525Z,5.33
2022-08-09T21:59:42.768Z,5.10
2022-08-09T22:02:07.071Z,13.75
2022-08-09T22:04:58.061Z,11.00
2022-08-09T22:09:50.672Z,7.72
2022-08-09T22:12:30.375Z,6.50
2022-08-09T22:17:32.362Z,5.25
2022-08-09T22:20:31.480Z,5.55
2022-08-09T22:23:04.954Z,3.25
2022-08-09T22:26:08.430Z,4.08
2022-08-09T22:28:13.366Z,7.28
2022-08-09T22:30:48.763Z,4.67
2022-08-09T22:33:21.530Z,4.65
2022-08-09T22:36:02.260Z,4.22
2022-08-09T22:38:29.009Z,4.33
2022-08-09T22:41:01.537Z,7.28
2022-08-09T22:44:01.182Z,5.80
2022-08-09T22:48:13.939Z,6.83
2022-08-09T22:48:50.373Z,7.37
2022-08-09T22:51:17.922Z,8.08
2022-08-09T22:54:02.728Z,6.90
2022-08-09T22:56:32.964Z,5.45
2022-08-09T22:59:06.008Z,7.15
2022-08-09T23:01:39.123Z,8.35
2022-08-09T23:07:02.681Z,5.60
2022-08-09T23:09:35.744Z,4.28
2022-08-09T23:12:09.084Z,4.08
2022-08-09T23:14:42.004Z,4.67
2022-08-09T23:17:25.706Z,7.03
2022-08-09T23:20:06.322Z,7.30
2022-08-09T23:22:34.748Z,4.08
2022-08-09T23:25:09.291Z,9.23
2022-08-09T23:28:14.931Z,5.92
2022-08-09T23:30:16.226Z,7.25
2022-08-09T23:32:49.689Z,6.60
2022-08-09T23:35:22.347Z,5.28
2022-08-09T23:37:56.294Z,4.65
2022-08-09T23:40:28.891Z,4.50
2022-08-09T23:43:02.474Z,6.97
2022-08-09T23:45:38.435Z,5.40
2022-08-09T23:50:43.788Z,10.10
2022-08-09T23:53:17.486Z,4.65
2022-08-09T23:55:54.641Z,5.85
2022-08-09T23:58:29.771Z,4.67
